Harleigh, Pennsylvania
Current Conditions -  °F | °C
As of 10:15 AM on Thursday 18 Dec 2014 (Local Time) from KHZL Reporting Station
Overcast Overcast  
Wind Chill: 24°   Ceiling: 2500
Heat Index: 32°   Visibility: 10mi
Dew Point: 23°   Wind: 10mph
Humidity: 69%   Direction: 300°WNW
Pressure: 30.01"   Gusts: 20mph
Location:  40.98°N, 75.97°W
Report Text: KHZL 181515Z AUTO 30009G17KT 10SM BKN025 OVC033 00/M05 A3001 RMK AO2
Loading
Personal Weather Stations






























Interactive Weather Map New forecast layout! Learn more

10-Day Weather Forecast

Advertisements
Track Severe Weather on mobile